sensor_id;sensor_type;location;lat;lon;timestamp;pressure;altitude;pressure_sealevel;temperature;humidity
20394;BME280;10356;50.544;9.642;2023-03-01T00:02:26;99450.84;;;-3.32;90.55
20394;BME280;10356;50.544;9.642;2023-03-01T00:04:52;99457.63;;;-3.31;90.76
20394;BME280;10356;50.544;9.642;2023-03-01T00:07:19;99453.41;;;-3.30;90.93
20394;BME280;10356;50.544;9.642;2023-03-01T00:09:47;99450.84;;;-3.26;91.12
20394;BME280;10356;50.544;9.642;2023-03-01T00:12:14;99443.19;;;-3.29;91.20
20394;BME280;10356;50.544;9.642;2023-03-01T00:14:41;99458.50;;;-3.32;91.15
20394;BME280;10356;50.544;9.642;2023-03-01T00:17:07;99447.47;;;-3.38;91.51
20394;BME280;10356;50.544;9.642;2023-03-01T00:19:34;99449.19;;;-3.45;91.52
20394;BME280;10356;50.544;9.642;2023-03-01T00:22:01;99438.16;;;-3.53;91.59
20394;BME280;10356;50.544;9.642;2023-03-01T00:24:27;99428.84;;;-3.53;91.46
20394;BME280;10356;50.544;9.642;2023-03-01T00:26:55;99424.63;;;-3.60;91.24
20394;BME280;10356;50.544;9.642;2023-03-01T00:29:23;99426.31;;;-3.60;91.44
20394;BME280;10356;50.544;9.642;2023-03-01T00:31:49;99420.41;;;-3.68;91.94
20394;BME280;10356;50.544;9.642;2023-03-01T00:34:16;99413.63;;;-3.74;92.17
20394;BME280;10356;50.544;9.642;2023-03-01T00:36:43;99421.25;;;-3.78;92.24
20394;BME280;10356;50.544;9.642;2023-03-01T00:39:12;99409.38;;;-3.76;92.41
20394;BME280;10356;50.544;9.642;2023-03-01T00:41:39;99412.78;;;-3.74;92.90
20394;BME280;10356;50.544;9.642;2023-03-01T00:44:07;99413.59;;;-3.69;93.06
20394;BME280;10356;50.544;9.642;2023-03-01T00:46:34;99419.53;;;-3.70;92.76
20394;BME280;10356;50.544;9.642;2023-03-01T00:49:01;99414.47;;;-3.75;92.68
20394;BME280;10356;50.544;9.642;2023-03-01T00:51:29;99409.38;;;-3.72;93.01
20394;BME280;10356;50.544;9.642;2023-03-01T00:53:58;99416.16;;;-3.72;92.49
20394;BME280;10356;50.544;9.642;2023-03-01T00:56:24;99410.22;;;-3.74;92.04
20394;BME280;10356;50.544;9.642;2023-03-01T00:58:51;99405.97;;;-3.75;92.04
20394;BME280;10356;50.544;9.642;2023-03-01T01:01:21;99397.47;;;-3.77;92.11
20394;BME280;10356;50.544;9.642;2023-03-01T01:03:49;99404.25;;;-3.73;92.18
20394;BME280;10356;50.544;9.642;2023-03-01T01:06:18;99387.31;;;-3.74;91.94
20394;BME280;10356;50.544;9.642;2023-03-01T01:08:45;99400.88;;;-3.72;91.99
20394;BME280;10356;50.544;9.642;2023-03-01T01:11:14;99396.66;;;-3.76;92.34
20394;BME280;10356;50.544;9.642;2023-03-01T01:13:41;99395.78;;;-3.81;92.37
20394;BME280;10356;50.544;9.642;2023-03-01T01:16:08;99394.13;;;-3.91;92.58
20394;BME280;10356;50.544;9.642;2023-03-01T01:18:36;99399.22;;;-3.91;92.69
20394;BME280;10356;50.544;9.642;2023-03-01T01:21:07;99394.97;;;-3.94;92.81
20394;BME280;10356;50.544;9.642;2023-03-01T01:23:34;99389.06;;;-3.94;93.16
20394;BME280;10356;50.544;9.642;2023-03-01T01:26:05;99388.19;;;-3.89;93.57
20394;BME280;10356;50.544;9.642;2023-03-01T01:28:33;99388.16;;;-3.81;93.25
20394;BME280;10356;50.544;9.642;2023-03-01T01:30:59;99377.16;;;-3.86;93.15
20394;BME280;10356;50.544;9.642;2023-03-01T01:33:26;99389.00;;;-3.79;93.52
20394;BME280;10356;50.544;9.642;2023-03-01T01:35:54;99387.31;;;-3.77;93.37
20394;BME280;10356;50.544;9.642;2023-03-01T01:38:21;99384.75;;;-3.77;93.91
20394;BME280;10356;50.544;9.642;2023-03-01T01:40:49;99382.22;;;-3.80;94.05
20394;BME280;10356;50.544;9.642;2023-03-01T01:43:21;99385.59;;;-3.81;94.00
20394;BME280;10356;50.544;9.642;2023-03-01T01:45:49;99383.91;;;-3.79;93.89
20394;BME280;10356;50.544;9.642;2023-03-01T01:48:19;99380.53;;;-3.78;93.94
20394;BME280;10356;50.544;9.642;2023-03-01T01:50:50;99377.97;;;-3.72;94.09
20394;BME280;10356;50.544;9.642;2023-03-01T01:53:21;99368.63;;;-3.70;94.52
20394;BME280;10356;50.544;9.642;2023-03-01T01:55:51;99372.00;;;-3.67;94.26
20394;BME280;10356;50.544;9.642;2023-03-01T01:58:20;99364.41;;;-3.76;94.77
20394;BME280;10356;50.544;9.642;2023-03-01T02:00:48;99360.16;;;-3.72;95.09
20394;BME280;10356;50.544;9.642;2023-03-01T02:03:18;99360.16;;;-3.72;95.08
20394;BME280;10356;50.544;9.642;2023-03-01T02:05:50;99363.53;;;-3.73;94.91
20394;BME280;10356;50.544;9.642;2023-03-01T02:08:23;99366.09;;;-3.76;95.17
20394;BME280;10356;50.544;9.642;2023-03-01T02:10:51;99369.50;;;-3.80;95.18
20394;BME280;10356;50.544;9.642;2023-03-01T02:13:19;99355.09;;;-3.84;94.58
20394;BME280;10356;50.544;9.642;2023-03-01T02:15:45;99359.31;;;-3.79;95.20
20394;BME280;10356;50.544;9.642;2023-03-01T02:18:17;99357.63;;;-3.83;94.88
20394;BME280;10356;50.544;9.642;2023-03-01T02:20:55;99351.69;;;-3.80;95.95
20394;BME280;10356;50.544;9.642;2023-03-01T02:23:27;99344.03;;;-3.80;95.68
20394;BME280;10356;50.544;9.642;2023-03-01T02:25:58;99349.13;;;-3.85;95.73
20394;BME280;10356;50.544;9.642;2023-03-01T02:28:30;99340.69;;;-3.88;95.67
20394;BME280;10356;50.544;9.642;2023-03-01T02:30:57;99344.03;;;-3.88;95.87
20394;BME280;10356;50.544;9.642;2023-03-01T02:33:42;99340.69;;;-3.88;95.80
20394;BME280;10356;50.544;9.642;2023-03-01T02:36:13;99336.44;;;-3.86;95.86
20394;BME280;10356;50.544;9.642;2023-03-01T02:38:41;99338.97;;;-3.86;95.83
20394;BME280;10356;50.544;9.642;2023-03-01T02:41:10;99338.13;;;-3.82;95.97
20394;BME280;10356;50.544;9.642;2023-03-01T02:43:41;99330.47;;;-3.82;96.05
20394;BME280;10356;50.544;9.642;2023-03-01T02:46:13;99327.91;;;-3.76;94.91
20394;BME280;10356;50.544;9.642;2023-03-01T02:48:43;99326.22;;;-3.74;95.22
20394;BME280;10356;50.544;9.642;2023-03-01T02:51:17;99316.03;;;-3.74;95.30
20394;BME280;10356;50.544;9.642;2023-03-01T02:53:56;99317.69;;;-3.73;94.93
20394;BME280;10356;50.544;9.642;2023-03-01T02:56:30;99314.25;;;-3.63;94.92
20394;BME280;10356;50.544;9.642;2023-03-01T02:58:58;99310.03;;;-3.63;94.90
20394;BME280;10356;50.544;9.642;2023-03-01T03:01:26;99303.25;;;-3.65;94.98
20394;BME280;10356;50.544;9.642;2023-03-01T03:04:02;99299.03;;;-3.72;94.57
20394;BME280;10356;50.544;9.642;2023-03-01T03:06:28;99298.19;;;-3.71;95.17
20394;BME280;10356;50.544;9.642;2023-03-01T03:08:55;99288.03;;;-3.74;95.19
20394;BME280;10356;50.544;9.642;2023-03-01T03:11:22;99293.94;;;-3.75;94.61
20394;BME280;10356;50.544;9.642;2023-03-01T03:13:48;99302.44;;;-3.79;94.66
20394;BME280;10356;50.544;9.642;2023-03-01T03:16:16;99301.59;;;-3.81;95.43
20394;BME280;10356;50.544;9.642;2023-03-01T03:18:43;99298.25;;;-3.82;95.02
20394;BME280;10356;50.544;9.642;2023-03-01T03:21:10;99299.91;;;-3.78;95.49
20394;BME280;10356;50.544;9.642;2023-03-01T03:23:37;99296.50;;;-3.74;95.63
20394;BME280;10356;50.544;9.642;2023-03-01T03:26:05;99301.59;;;-3.74;95.42
20394;BME280;10356;50.544;9.642;2023-03-01T03:28:32;99296.50;;;-3.72;95.32
20394;BME280;10356;50.544;9.642;2023-03-01T03:30:59;99300.72;;;-3.71;95.72
20394;BME280;10356;50.544;9.642;2023-03-01T03:33:30;99297.28;;;-3.61;95.73
20394;BME280;10356;50.544;9.642;2023-03-01T03:35:56;99298.13;;;-3.58;95.25
20394;BME280;10356;50.544;9.642;2023-03-01T03:38:23;99284.56;;;-3.60;95.10
20394;BME280;10356;50.544;9.642;2023-03-01T03:40:51;99294.72;;;-3.54;95.83
20394;BME280;10356;50.544;9.642;2023-03-01T03:43:20;99294.69;;;-3.51;95.52
20394;BME280;10356;50.544;9.642;2023-03-01T03:45:48;99293.84;;;-3.51;95.02
20394;BME280;10356;50.544;9.642;2023-03-01T03:48:16;99299.78;;;-3.48;95.08
20394;BME280;10356;50.544;9.642;2023-03-01T03:50:48;99294.66;;;-3.45;94.78
20394;BME280;10356;50.544;9.642;2023-03-01T03:53:15;99281.09;;;-3.48;94.89
20394;BME280;10356;50.544;9.642;2023-03-01T03:55:42;99291.22;;;-3.39;94.39
20394;BME280;10356;50.544;9.642;2023-03-01T03:58:10;99287.81;;;-3.33;94.53
20394;BME280;10356;50.544;9.642;2023-03-01T04:00:38;99275.88;;;-3.25;94.22
20394;BME280;10356;50.544;9.642;2023-03-01T04:03:05;99266.56;;;-3.28;93.44
20394;BME280;10356;50.544;9.642;2023-03-01T04:05:32;99272.44;;;-3.18;93.52
20394;BME280;10356;50.544;9.642;2023-03-01T04:08:00;99291.78;;;-2.95;91.89
20394;BME280;10356;50.544;9.642;2023-03-01T04:10:33;99281.56;;;-2.89;92.03
20394;BME280;10356;50.544;9.642;2023-03-01T04:13:00;99290.09;;;-2.93;91.99
20394;BME280;10356;50.544;9.642;2023-03-01T04:15:27;99288.34;;;-2.86;91.54
20394;BME280;10356;50.544;9.642;2023-03-01T04:17:54;99281.59;;;-2.92;91.58
20394;BME280;10356;50.544;9.642;2023-03-01T04:20:24;99279.84;;;-2.84;91.42
20394;BME280;10356;50.544;9.642;2023-03-01T04:22:52;99277.31;;;-2.85;91.12
20394;BME280;10356;50.544;9.642;2023-03-01T04:25:20;99273.00;;;-2.82;90.37
20394;BME280;10356;50.544;9.642;2023-03-01T04:27:47;99271.31;;;-2.83;90.25
20394;BME280;10356;50.544;9.642;2023-03-01T04:30:13;99264.63;;;-2.96;91.15
20394;BME280;10356;50.544;9.642;2023-03-01T04:32:40;99269.78;;;-3.06;90.94
20394;BME280;10356;50.544;9.642;2023-03-01T04:35:07;99266.44;;;-3.13;91.65
20394;BME280;10356;50.544;9.642;2023-03-01T04:37:34;99261.38;;;-3.19;91.75
20394;BME280;10356;50.544;9.642;2023-03-01T04:40:01;99263.94;;;-3.17;92.20
20394;BME280;10356;50.544;9.642;2023-03-01T04:42:34;99263.88;;;-3.10;92.11
20394;BME280;10356;50.544;9.642;2023-03-01T04:45:01;99257.06;;;-3.06;91.82
20394;BME280;10356;50.544;9.642;2023-03-01T04:47:28;99254.50;;;-3.05;91.54
20394;BME280;10356;50.544;9.642;2023-03-01T04:49:54;99258.81;;;-3.14;91.66
20394;BME280;10356;50.544;9.642;2023-03-01T04:52:21;99255.41;;;-3.13;91.30
20394;BME280;10356;50.544;9.642;2023-03-01T04:54:47;99256.28;;;-3.16;91.25
20394;BME280;10356;50.544;9.642;2023-03-01T04:57:14;99257.91;;;-3.09;91.88
20394;BME280;10356;50.544;9.642;2023-03-01T04:59:41;99262.19;;;-3.12;91.67
20394;BME280;10356;50.544;9.642;2023-03-01T05:02:09;99261.28;;;-3.04;91.22
20394;BME280;10356;50.544;9.642;2023-03-01T05:04:35;99252.78;;;-3.03;90.90
20394;BME280;10356;50.544;9.642;2023-03-01T05:07:02;99253.59;;;-2.98;90.41
20394;BME280;10356;50.544;9.642;2023-03-01T05:09:28;99252.81;;;-3.06;90.67
20394;BME280;10356;50.544;9.642;2023-03-01T05:11:55;99251.97;;;-3.06;91.64
20394;BME280;10356;50.544;9.642;2023-03-01T05:14:21;99257.88;;;-3.03;91.88
20394;BME280;10356;50.544;9.642;2023-03-01T05:16:49;99248.59;;;-3.10;91.71
20394;BME280;10356;50.544;9.642;2023-03-01T05:19:15;99252.00;;;-3.09;91.92
20394;BME280;10356;50.544;9.642;2023-03-01T05:21:48;99253.69;;;-3.13;91.66
20394;BME280;10356;50.544;9.642;2023-03-01T05:24:32;99255.38;;;-3.09;91.79
20394;BME280;10356;50.544;9.642;2023-03-01T05:26:59;99251.09;;;-3.04;91.22
20394;BME280;10356;50.544;9.642;2023-03-01T05:29:27;99246.84;;;-3.05;92.05
20394;BME280;10356;50.544;9.642;2023-03-01T05:31:57;99245.16;;;-3.09;91.26
20394;BME280;10356;50.544;9.642;2023-03-01T05:34:24;99249.44;;;-3.08;91.95
20394;BME280;10356;50.544;9.642;2023-03-01T05:36:51;99244.38;;;-3.14;91.79
20394;BME280;10356;50.544;9.642;2023-03-01T05:39:19;99252.91;;;-3.18;91.90
20394;BME280;10356;50.544;9.642;2023-03-01T05:41:47;99252.94;;;-3.27;91.71
20394;BME280;10356;50.544;9.642;2023-03-01T05:44:13;99247.97;;;-3.42;92.83
20394;BME280;10356;50.544;9.642;2023-03-01T05:46:41;99241.19;;;-3.49;92.58
20394;BME280;10356;50.544;9.642;2023-03-01T05:49:09;99240.31;;;-3.41;93.52
20394;BME280;10356;50.544;9.642;2023-03-01T05:51:38;99234.34;;;-3.38;93.17
20394;BME280;10356;50.544;9.642;2023-03-01T05:54:04;99232.63;;;-3.36;93.36
20394;BME280;10356;50.544;9.642;2023-03-01T05:56:32;99244.47;;;-3.29;93.72
20394;BME280;10356;50.544;9.642;2023-03-01T05:58:59;99241.00;;;-3.20;92.63
20394;BME280;10356;50.544;9.642;2023-03-01T06:01:26;99235.94;;;-3.25;92.31
20394;BME280;10356;50.544;9.642;2023-03-01T06:03:54;99235.94;;;-3.25;92.73
20394;BME280;10356;50.544;9.642;2023-03-01T06:06:23;99234.13;;;-3.11;92.40
20394;BME280;10356;50.544;9.642;2023-03-01T06:08:53;99232.47;;;-3.12;91.70
20394;BME280;10356;50.544;9.642;2023-03-01T06:11:20;99229.13;;;-3.20;91.73
20394;BME280;10356;50.544;9.642;2023-03-01T06:13:47;99226.63;;;-3.27;92.19
20394;BME280;10356;50.544;9.642;2023-03-01T06:16:13;99227.47;;;-3.24;92.50
20394;BME280;10356;50.544;9.642;2023-03-01T06:18:41;99219.84;;;-3.25;92.05
20394;BME280;10356;50.544;9.642;2023-03-01T06:21:08;99232.59;;;-3.30;92.74
20394;BME280;10356;50.544;9.642;2023-03-01T06:23:36;99231.75;;;-3.35;92.53
20394;BME280;10356;50.544;9.642;2023-03-01T06:26:05;99230.03;;;-3.30;92.94
20394;BME280;10356;50.544;9.642;2023-03-01T06:28:33;99225.84;;;-3.34;93.12
20394;BME280;10356;50.544;9.642;2023-03-01T06:31:00;99233.50;;;-3.35;93.19
20394;BME280;10356;50.544;9.642;2023-03-01T06:33:26;99233.47;;;-3.34;93.26
20394;BME280;10356;50.544;9.642;2023-03-01T06:35:54;99227.50;;;-3.33;92.96
20394;BME280;10356;50.544;9.642;2023-03-01T06:38:21;99235.19;;;-3.36;93.54
20394;BME280;10356;50.544;9.642;2023-03-01T06:40:52;99241.13;;;-3.37;93.48
20394;BME280;10356;50.544;9.642;2023-03-01T06:43:20;99236.84;;;-3.27;93.21
20394;BME280;10356;50.544;9.642;2023-03-01T06:45:46;99245.28;;;-3.22;93.68
20394;BME280;10356;50.544;9.642;2023-03-01T06:48:13;99236.75;;;-3.15;93.28
20394;BME280;10356;50.544;9.642;2023-03-01T06:50:39;99227.34;;;-3.09;93.31
20394;BME280;10356;50.544;9.642;2023-03-01T06:53:06;99219.69;;;-3.10;93.07
20394;BME280;10356;50.544;9.642;2023-03-01T06:55:32;99225.63;;;-3.07;93.55
20394;BME280;10356;50.544;9.642;2023-03-01T06:58:01;99215.38;;;-3.01;93.45
20394;BME280;10356;50.544;9.642;2023-03-01T07:00:28;99226.38;;;-2.91;93.36
20394;BME280;10356;50.544;9.642;2023-03-01T07:02:58;99229.63;;;-2.77;92.42
20394;BME280;10356;50.544;9.642;2023-03-01T07:05:25;99235.53;;;-2.72;92.31
20394;BME280;10356;50.544;9.642;2023-03-01T07:07:53;99228.66;;;-2.64;92.82
20394;BME280;10356;50.544;9.642;2023-03-01T07:10:20;99226.00;;;-2.53;92.25
20394;BME280;10356;50.544;9.642;2023-03-01T07:12:46;99242.84;;;-2.34;91.42
20394;BME280;10356;50.544;9.642;2023-03-01T07:15:14;99239.31;;;-2.26;90.88
20394;BME280;10356;50.544;9.642;2023-03-01T07:17:41;99231.59;;;-2.18;90.97
20394;BME280;10356;50.544;9.642;2023-03-01T07:20:10;99232.34;;;-2.09;90.38
20394;BME280;10356;50.544;9.642;2023-03-01T07:22:39;99238.22;;;-2.02;90.19
20394;BME280;10356;50.544;9.642;2023-03-01T07:25:07;99244.00;;;-1.90;89.74
20394;BME280;10356;50.544;9.642;2023-03-01T07:27:33;99244.75;;;-1.80;88.79
20394;BME280;10356;50.544;9.642;2023-03-01T07:30:00;99245.44;;;-1.67;87.20
20394;BME280;10356;50.544;9.642;2023-03-01T07:32:28;99246.19;;;-1.59;86.32
20394;BME280;10356;50.544;9.642;2023-03-01T07:34:55;99249.41;;;-1.47;85.71
20394;BME280;10356;50.544;9.642;2023-03-01T07:37:21;99260.38;;;-1.39;86.15
20394;BME280;10356;50.544;9.642;2023-03-01T07:39:48;99254.34;;;-1.33;86.12
20394;BME280;10356;50.544;9.642;2023-03-01T07:42:15;99252.47;;;-1.21;85.32
20394;BME280;10356;50.544;9.642;2023-03-01T07:44:41;99252.25;;;-1.06;83.99
20394;BME280;10356;50.544;9.642;2023-03-01T07:47:08;99234.19;;;-0.95;84.28
20394;BME280;10356;50.544;9.642;2023-03-01T07:49:36;99242.47;;;-0.82;82.81
20394;BME280;10356;50.544;9.642;2023-03-01T07:52:02;99238.81;;;-0.66;82.54
20394;BME280;10356;50.544;9.642;2023-03-01T07:54:29;99240.34;;;-0.55;81.89
20394;BME280;10356;50.544;9.642;2023-03-01T07:56:56;99235.78;;;-0.39;80.65
20394;BME280;10356;50.544;9.642;2023-03-01T07:59:23;99233.00;;;-0.27;79.11
20394;BME280;10356;50.544;9.642;2023-03-01T08:01:54;99231.06;;;-0.15;79.16
20394;BME280;10356;50.544;9.642;2023-03-01T08:04:20;99233.75;;;-0.22;78.30
20394;BME280;10356;50.544;9.642;2023-03-01T08:06:48;99229.09;;;-0.02;78.15
20394;BME280;10356;50.544;9.642;2023-03-01T08:09:15;99221.34;;;0.01;76.30
20394;BME280;10356;50.544;9.642;2023-03-01T08:11:41;99228.88;;;0.10;77.26
20394;BME280;10356;50.544;9.642;2023-03-01T08:14:08;99225.94;;;0.28;76.92
20394;BME280;10356;50.544;9.642;2023-03-01T08:16:35;99223.25;;;0.33;75.81
20394;BME280;10356;50.544;9.642;2023-03-01T08:19:06;99216.91;;;0.49;74.12
20394;BME280;10356;50.544;9.642;2023-03-01T08:21:33;99208.59;;;0.39;72.89
20394;BME280;10356;50.544;9.642;2023-03-01T08:24:03;99210.75;;;0.57;72.68
20394;BME280;10356;50.544;9.642;2023-03-01T08:26:31;99210.28;;;0.40;72.39
20394;BME280;10356;50.544;9.642;2023-03-01T08:28:59;99204.69;;;0.61;72.98
20394;BME280;10356;50.544;9.642;2023-03-01T08:31:28;99206.25;;;0.68;73.56
20394;BME280;10356;50.544;9.642;2023-03-01T08:33:57;99201.94;;;0.70;73.74
20394;BME280;10356;50.544;9.642;2023-03-01T08:36:26;99200.66;;;0.88;72.12
20394;BME280;10356;50.544;9.642;2023-03-01T08:38:53;99196.06;;;1.01;71.81
20394;BME280;10356;50.544;9.642;2023-03-01T08:41:21;99191.81;;;1.00;71.23
20394;BME280;10356;50.544;9.642;2023-03-01T08:43:48;99194.63;;;0.89;73.50
20394;BME280;10356;50.544;9.642;2023-03-01T08:46:15;99192.56;;;1.05;72.13
20394;BME280;10356;50.544;9.642;2023-03-01T08:48:41;99195.63;;;1.17;70.46
20394;BME280;10356;50.544;9.642;2023-03-01T08:51:09;99199.72;;;1.26;69.48
20394;BME280;10356;50.544;9.642;2023-03-01T08:53:36;99189.97;;;1.38;69.26
20394;BME280;10356;50.544;9.642;2023-03-01T08:56:03;99186.91;;;1.24;69.82
20394;BME280;10356;50.544;9.642;2023-03-01T08:58:31;99183.16;;;1.04;68.89
20394;BME280;10356;50.544;9.642;2023-03-01T09:00:58;99182.00;;;1.15;68.99
20394;BME280;10356;50.544;9.642;2023-03-01T09:03:25;99181.53;;;1.35;69.28
20394;BME280;10356;50.544;9.642;2023-03-01T09:05:52;99158.94;;;1.47;68.08
20394;BME280;10356;50.544;9.642;2023-03-01T09:08:19;99167.88;;;1.65;67.09
20394;BME280;10356;50.544;9.642;2023-03-01T09:10:46;99162.47;;;1.74;67.26
20394;BME280;10356;50.544;9.642;2023-03-01T09:13:12;99162.97;;;1.57;65.79
20394;BME280;10356;50.544;9.642;2023-03-01T09:15:40;99166.91;;;1.69;66.72
20394;BME280;10356;50.544;9.642;2023-03-01T09:18:07;99160.13;;;1.66;66.65
20394;BME280;10356;50.544;9.642;2023-03-01T09:20:33;99164.88;;;1.80;66.44
20394;BME280;10356;50.544;9.642;2023-03-01T09:23:00;99160.53;;;1.82;66.11
20394;BME280;10356;50.544;9.642;2023-03-01T09:25:27;99162.47;;;2.05;66.15
20394;BME280;10356;50.544;9.642;2023-03-01T09:27:54;99158.31;;;2.30;65.37
20394;BME280;10356;50.544;9.642;2023-03-01T09:30:21;99159.22;;;2.27;64.33
20394;BME280;10356;50.544;9.642;2023-03-01T09:32:49;99149.56;;;2.35;64.47
20394;BME280;10356;50.544;9.642;2023-03-01T09:35:15;99147.75;;;2.65;63.73
20394;BME280;10356;50.544;9.642;2023-03-01T09:37:43;99145.38;;;2.87;62.05
20394;BME280;10356;50.544;9.642;2023-03-01T09:40:13;99143.22;;;2.73;61.89
20394;BME280;10356;50.544;9.642;2023-03-01T09:42:47;99147.28;;;2.54;62.36
20394;BME280;10356;50.544;9.642;2023-03-01T09:45:26;99142.03;;;2.83;60.27
20394;BME280;10356;50.544;9.642;2023-03-01T09:47:56;99140.22;;;2.87;59.31
20394;BME280;10356;50.544;9.642;2023-03-01T09:50:23;99133.22;;;2.90;59.48
20394;BME280;10356;50.544;9.642;2023-03-01T09:52:54;99130.16;;;2.79;58.94
20394;BME280;10356;50.544;9.642;2023-03-01T09:55:28;99128.75;;;2.95;59.40
20394;BME280;10356;50.544;9.642;2023-03-01T09:58:00;99120.50;;;3.12;59.46
20394;BME280;10356;50.544;9.642;2023-03-01T10:00:37;99116.06;;;3.40;56.50
20394;BME280;10356;50.544;9.642;2023-03-01T10:03:25;99123.78;;;3.65;56.65
20394;BME280;10356;50.544;9.642;2023-03-01T10:05:59;99111.00;;;3.62;57.38
20394;BME280;10356;50.544;9.642;2023-03-01T10:08:31;99106.69;;;3.62;57.40
20394;BME280;10356;50.544;9.642;2023-03-01T10:11:02;99120.50;;;3.61;56.90
20394;BME280;10356;50.544;9.642;2023-03-01T10:13:38;99120.88;;;3.74;57.46
20394;BME280;10356;50.544;9.642;2023-03-01T10:16:13;99110.91;;;3.40;57.49
20394;BME280;10356;50.544;9.642;2023-03-01T10:18:54;99112.91;;;4.03;57.28
20394;BME280;10356;50.544;9.642;2023-03-01T10:21:22;99121.97;;;3.91;56.72
20394;BME280;10356;50.544;9.642;2023-03-01T10:23:50;99117.78;;;4.10;55.07
20394;BME280;10356;50.544;9.642;2023-03-01T10:26:30;99105.03;;;4.29;55.29
20394;BME280;10356;50.544;9.642;2023-03-01T10:29:03;99108.94;;;4.39;55.20
20394;BME280;10356;50.544;9.642;2023-03-01T10:31:38;99100.59;;;4.54;55.75
20394;BME280;10356;50.544;9.642;2023-03-01T10:34:10;99101.59;;;4.72;54.72
20394;BME280;10356;50.544;9.642;2023-03-01T10:36:39;99097.94;;;4.97;53.71
20394;BME280;10356;50.544;9.642;2023-03-01T10:39:12;99093.03;;;4.50;54.31
20394;BME280;10356;50.544;9.642;2023-03-01T10:41:52;99111.88;;;4.52;53.90
20394;BME280;10356;50.544;9.642;2023-03-01T10:44:35;99097.22;;;4.74;54.17
20394;BME280;10356;50.544;9.642;2023-03-01T10:47:03;99096.16;;;4.99;53.55
20394;BME280;10356;50.544;9.642;2023-03-01T10:49:31;99095.63;;;4.50;53.45
20394;BME280;10356;50.544;9.642;2023-03-01T10:52:11;99087.78;;;4.73;54.15
20394;BME280;10356;50.544;9.642;2023-03-01T10:54:51;99089.94;;;5.03;53.64
20394;BME280;10356;50.544;9.642;2023-03-01T10:57:28;99084.84;;;5.02;53.67
20394;BME280;10356;50.544;9.642;2023-03-01T11:00:15;99079.50;;;5.06;53.05
20394;BME280;10356;50.544;9.642;2023-03-01T11:02:42;99068.72;;;5.17;53.47
20394;BME280;10356;50.544;9.642;2023-03-01T11:05:18;99068.94;;;5.51;52.07
20394;BME280;10356;50.544;9.642;2023-03-01T11:07:49;99069.25;;;5.25;52.06
20394;BME280;10356;50.544;9.642;2023-03-01T11:10:18;99078.81;;;5.23;52.70
20394;BME280;10356;50.544;9.642;2023-03-01T11:12:45;99068.72;;;5.37;52.51
20394;BME280;10356;50.544;9.642;2023-03-01T11:15:21;99056.38;;;5.62;52.40
20394;BME280;10356;50.544;9.642;2023-03-01T11:17:48;99061.06;;;5.34;53.48
20394;BME280;10356;50.544;9.642;2023-03-01T11:20:24;99062.19;;;5.67;52.00
20394;BME280;10356;50.544;9.642;2023-03-01T11:22:53;99055.66;;;5.98;52.28
20394;BME280;10356;50.544;9.642;2023-03-01T11:25:24;99055.69;;;6.15;51.72
20394;BME280;10356;50.544;9.642;2023-03-01T11:27:51;99047.41;;;6.61;49.52
20394;BME280;10356;50.544;9.642;2023-03-01T11:30:22;99056.06;;;5.50;50.38
20394;BME280;10356;50.544;9.642;2023-03-01T11:32:54;99047.16;;;5.18;51.62
20394;BME280;10356;50.544;9.642;2023-03-01T11:35:26;99037.88;;;5.71;51.35
20394;BME280;10356;50.544;9.642;2023-03-01T11:37:59;99043.75;;;5.75;50.24
20394;BME280;10356;50.544;9.642;2023-03-01T11:40:33;99042.34;;;5.49;51.58
20394;BME280;10356;50.544;9.642;2023-03-01T11:43:06;99038.31;;;6.00;51.27
20394;BME280;10356;50.544;9.642;2023-03-01T11:45:43;99028.88;;;6.34;50.83
20394;BME280;10356;50.544;9.642;2023-03-01T11:48:32;99021.41;;;6.64;50.47
20394;BME280;10356;50.544;9.642;2023-03-01T11:51:05;99025.63;;;6.12;49.88
20394;BME280;10356;50.544;9.642;2023-03-01T11:53:53;99030.84;;;5.93;50.42
20394;BME280;10356;50.544;9.642;2023-03-01T11:56:29;99027.63;;;5.31;50.94
20394;BME280;10356;50.544;9.642;2023-03-01T11:59:13;99014.00;;;5.85;50.32
20394;BME280;10356;50.544;9.642;2023-03-01T12:01:55;99014.59;;;5.53;51.02
20394;BME280;10356;50.544;9.642;2023-03-01T12:04:38;99008.09;;;6.00;52.07
20394;BME280;10356;50.544;9.642;2023-03-01T12:07:18;99002.88;;;6.02;49.96
20394;BME280;10356;50.544;9.642;2023-03-01T12:10:09;99000.91;;;5.69;50.08
20394;BME280;10356;50.544;9.642;2023-03-01T12:12:56;98991.81;;;5.79;51.08
20394;BME280;10356;50.544;9.642;2023-03-01T12:15:36;98977.19;;;6.16;50.34
20394;BME280;10356;50.544;9.642;2023-03-01T12:18:32;98973.53;;;6.20;50.90
20394;BME280;10356;50.544;9.642;2023-03-01T12:21:14;98973.03;;;5.94;49.65
20394;BME280;10356;50.544;9.642;2023-03-01T12:24:10;98971.38;;;6.46;48.78
20394;BME280;10356;50.544;9.642;2023-03-01T12:26:44;98967.13;;;6.10;48.26
20394;BME280;10356;50.544;9.642;2023-03-01T12:29:25;98962.28;;;6.38;48.60
20394;BME280;10356;50.544;9.642;2023-03-01T12:32:26;98969.47;;;6.50;47.93
20394;BME280;10356;50.544;9.642;2023-03-01T12:35:16;98954.00;;;6.48;48.79
20394;BME280;10356;50.544;9.642;2023-03-01T12:37:54;98967.16;;;6.27;47.82
20394;BME280;10356;50.544;9.642;2023-03-01T12:40:50;98970.03;;;6.21;48.21
20394;BME280;10356;50.544;9.642;2023-03-01T12:43:36;98960.16;;;6.46;48.06
20394;BME280;10356;50.544;9.642;2023-03-01T12:46:18;98955.13;;;6.43;47.62
20394;BME280;10356;50.544;9.642;2023-03-01T12:48:53;98950.81;;;6.60;47.95
20394;BME280;10356;50.544;9.642;2023-03-01T12:51:23;98951.41;;;6.31;48.17
20394;BME280;10356;50.544;9.642;2023-03-01T12:53:54;98940.09;;;5.98;48.86
20394;BME280;10356;50.544;9.642;2023-03-01T12:56:25;98940.06;;;6.34;48.69
20394;BME280;10356;50.544;9.642;2023-03-01T12:59:01;98935.88;;;6.65;47.70
20394;BME280;10356;50.544;9.642;2023-03-01T13:01:36;98925.81;;;6.76;47.79
20394;BME280;10356;50.544;9.642;2023-03-01T13:04:16;98928.09;;;6.83;46.96
20394;BME280;10356;50.544;9.642;2023-03-01T13:06:55;98928.91;;;6.83;47.08
20394;BME280;10356;50.544;9.642;2023-03-01T13:09:29;98927.41;;;6.45;46.78
20394;BME280;10356;50.544;9.642;2023-03-01T13:11:59;98928.69;;;6.36;47.42
20394;BME280;10356;50.544;9.642;2023-03-01T13:14:45;98909.91;;;6.50;47.69
20394;BME280;10356;50.544;9.642;2023-03-01T13:17:41;98911.44;;;6.54;47.46
20394;BME280;10356;50.544;9.642;2023-03-01T13:20:13;98906.53;;;6.65;48.83
20394;BME280;10356;50.544;9.642;2023-03-01T13:22:41;98911.69;;;6.82;47.75